createdAt,value
2023-01-31T00:03:42.112Z,3.10
2023-01-31T00:08:47.327Z,3.50
2023-01-31T00:13:51.644Z,3.20
2023-01-31T00:23:59.495Z,3.90
2023-01-31T00:34:08.999Z,3.20
2023-01-31T00:39:12.502Z,3.10
2023-01-31T00:44:16.118Z,3.20
2023-01-31T00:49:19.531Z,3.60
2023-01-31T00:54:23.147Z,3.80
2023-01-31T00:59:27.806Z,3.90
2023-01-31T01:04:31.511Z,4.00
2023-01-31T01:09:35.580Z,3.60
2023-01-31T01:19:42.877Z,3.40
2023-01-31T01:24:47.107Z,4.30
2023-01-31T01:29:50.524Z,3.40
2023-01-31T01:34:54.140Z,4.20
2023-01-31T01:39:57.550Z,2.50
2023-01-31T01:45:03.530Z,3.90
2023-01-31T01:50:20.145Z,3.30
2023-01-31T01:55:42.238Z,4.10
2023-01-31T02:00:47.623Z,3.20
2023-01-31T02:05:58.243Z,3.20
2023-01-31T02:11:05.442Z,4.20
2023-01-31T02:16:09.618Z,2.80
2023-01-31T02:26:52.142Z,3.40
2023-01-31T02:32:14.390Z,4.20
2023-01-31T02:37:36.835Z,4.50
2023-01-31T02:43:19.496Z,2.60
2023-01-31T02:48:38.156Z,3.50
2023-01-31T02:53:53.650Z,3.20
2023-01-31T02:59:12.218Z,4.30
2023-01-31T03:04:16.248Z,4.00
2023-01-31T03:09:30.314Z,5.10
2023-01-31T03:14:48.979Z,3.70
2023-01-31T03:20:10.207Z,5.30
2023-01-31T03:25:17.292Z,4.20
2023-01-31T03:30:31.680Z,4.90
2023-01-31T03:35:39.394Z,4.80
2023-01-31T03:40:50.079Z,3.50
2023-01-31T03:45:57.599Z,4.00
2023-01-31T03:51:05.507Z,3.50
2023-01-31T03:56:14.604Z,2.80
2023-01-31T04:01:20.316Z,3.60
2023-01-31T04:06:23.835Z,4.30
2023-01-31T04:11:28.271Z,3.00
2023-01-31T04:21:35.820Z,4.00
2023-01-31T04:26:39.409Z,2.90
2023-01-31T04:31:43.184Z,3.40
2023-01-31T04:36:46.775Z,3.50
2023-01-31T04:41:50.293Z,3.10
2023-01-31T04:46:53.810Z,4.20
2023-01-31T04:51:57.317Z,4.50
2023-01-31T04:57:01.042Z,3.10
2023-01-31T05:02:04.679Z,3.80
2023-01-31T05:07:08.279Z,5.10
2023-01-31T05:12:11.907Z,4.80
2023-01-31T05:17:15.516Z,5.40
2023-01-31T05:22:22.814Z,3.60
2023-01-31T05:27:27.159Z,4.60
2023-01-31T05:32:31.344Z,4.10
2023-01-31T05:37:35.099Z,2.80
2023-01-31T05:42:38.820Z,4.00
2023-01-31T05:47:42.441Z,3.30
2023-01-31T05:52:59.943Z,3.70
2023-01-31T05:58:03.704Z,3.50
2023-01-31T06:03:07.154Z,2.60
2023-01-31T06:08:11.355Z,3.80
2023-01-31T06:13:14.877Z,3.20
2023-01-31T06:18:18.480Z,4.90
2023-01-31T06:23:22.514Z,3.00
2023-01-31T06:28:26.126Z,4.40
2023-01-31T06:33:42.737Z,2.60
2023-01-31T06:38:51.417Z,3.10
2023-01-31T06:43:55.300Z,3.40
2023-01-31T06:48:58.724Z,3.30
2023-01-31T06:54:02.547Z,2.60
2023-01-31T06:59:05.963Z,3.80
2023-01-31T07:04:09.483Z,3.80
2023-01-31T07:09:12.988Z,2.50
2023-01-31T07:14:16.609Z,2.90
2023-01-31T07:19:20.534Z,3.70
2023-01-31T07:24:24.060Z,3.00
2023-01-31T07:29:27.565Z,4.40
2023-01-31T07:34:31.386Z,3.60
2023-01-31T07:39:34.802Z,3.50
2023-01-31T07:44:38.317Z,2.90
2023-01-31T07:49:41.833Z,2.10
2023-01-31T07:54:45.353Z,3.40
2023-01-31T07:59:49.071Z,2.00
2023-01-31T08:04:52.714Z,3.40
2023-01-31T08:09:56.718Z,2.90
2023-01-31T08:15:00.330Z,3.80
2023-01-31T08:20:04.467Z,3.30
2023-01-31T08:25:08.292Z,2.60
2023-01-31T08:30:12.620Z,3.40
2023-01-31T08:40:19.852Z,2.90
2023-01-31T08:45:24.497Z,2.90
2023-01-31T08:50:30.369Z,2.90
2023-01-31T08:55:36.543Z,2.60
2023-01-31T09:00:40.519Z,3.50
2023-01-31T09:05:44.243Z,2.90
2023-01-31T09:10:53.103Z,2.80
2023-01-31T09:16:11.507Z,3.70
2023-01-31T09:21:18.832Z,2.90
2023-01-31T09:26:22.442Z,3.30
2023-01-31T09:31:26.300Z,2.90
2023-01-31T09:36:30.291Z,2.80
2023-01-31T09:41:48.437Z,2.50
2023-01-31T09:46:59.862Z,2.30
2023-01-31T09:52:04.676Z,3.40
2023-01-31T09:57:29.997Z,2.50
2023-01-31T10:02:42.834Z,2.90
2023-01-31T10:07:49.318Z,2.70
2023-01-31T10:12:58.131Z,3.10
2023-01-31T10:18:31.437Z,2.90
2023-01-31T10:23:44.040Z,3.10
2023-01-31T10:29:00.674Z,2.40
2023-01-31T10:34:25.544Z,2.70
2023-01-31T10:45:12.514Z,3.30
2023-01-31T10:50:24.623Z,1.80
2023-01-31T10:55:34.387Z,3.10
2023-01-31T11:00:37.804Z,2.00
2023-01-31T11:05:58.521Z,2.70
2023-01-31T11:11:09.669Z,2.60
2023-01-31T11:16:13.593Z,3.00
2023-01-31T11:21:26.492Z,2.20
2023-01-31T11:26:36.951Z,3.10
2023-01-31T11:31:43.610Z,2.70
2023-01-31T11:36:47.484Z,2.30
2023-01-31T11:41:51.084Z,2.40
2023-01-31T11:46:58.162Z,1.90
2023-01-31T11:52:15.830Z,2.70
2023-01-31T11:57:32.768Z,1.90
2023-01-31T12:02:38.311Z,2.60
2023-01-31T12:07:50.427Z,2.50
2023-01-31T12:12:57.564Z,2.50
2023-01-31T12:18:12.025Z,2.80
2023-01-31T12:23:27.314Z,2.30
2023-01-31T12:28:52.749Z,2.20
2023-01-31T12:34:28.310Z,2.80
2023-01-31T12:40:23.837Z,2.70
2023-01-31T12:45:46.526Z,2.40
2023-01-31T12:51:30.565Z,3.10
2023-01-31T12:57:04.231Z,2.70
2023-01-31T13:02:19.605Z,2.80
2023-01-31T13:07:31.963Z,3.30
2023-01-31T13:12:37.504Z,3.50
2023-01-31T13:17:42.443Z,3.20
2023-01-31T13:22:55.767Z,3.10
2023-01-31T13:28:20.988Z,1.80
2023-01-31T13:33:25.147Z,2.00
2023-01-31T13:38:36.414Z,2.80
2023-01-31T13:43:39.941Z,3.40
2023-01-31T13:48:59.433Z,3.80
2023-01-31T13:54:25.701Z,3.70
2023-01-31T13:59:36.154Z,5.00
2023-01-31T14:04:40.581Z,11.90
2023-01-31T14:10:05.813Z,5.30
2023-01-31T14:15:47.381Z,5.90
2023-01-31T14:20:51.033Z,5.40
2023-01-31T14:25:54.760Z,5.50
2023-01-31T14:30:58.169Z,7.70
2023-01-31T14:36:40.715Z,5.70
2023-01-31T14:42:07.257Z,5.80
2023-01-31T14:47:25.881Z,4.10
2023-01-31T14:52:50.214Z,5.80
2023-01-31T14:58:03.260Z,4.40
2023-01-31T15:03:55.622Z,3.60
2023-01-31T15:09:25.860Z,4.60
2023-01-31T15:14:45.607Z,3.80
2023-01-31T15:19:56.791Z,3.70
2023-01-31T15:25:06.624Z,4.30
2023-01-31T15:30:17.313Z,4.40
2023-01-31T15:35:29.652Z,4.50
2023-01-31T15:40:33.761Z,3.80
2023-01-31T15:45:37.750Z,3.60
2023-01-31T15:50:52.366Z,4.20
2023-01-31T16:01:03.719Z,3.50
2023-01-31T16:06:21.647Z,5.10
2023-01-31T16:11:26.597Z,3.20
2023-01-31T16:16:31.677Z,4.20
2023-01-31T16:21:44.931Z,3.40
2023-01-31T16:26:57.527Z,5.30
2023-01-31T16:32:01.244Z,5.70
2023-01-31T16:37:07.192Z,4.90
2023-01-31T16:42:16.364Z,4.90
2023-01-31T16:47:51.111Z,4.90
2023-01-31T16:53:16.440Z,5.60
2023-01-31T16:58:49.445Z,4.50
2023-01-31T17:04:22.580Z,5.00
2023-01-31T17:09:26.375Z,5.90
2023-01-31T17:14:30.288Z,5.10
2023-01-31T17:19:33.924Z,4.70
2023-01-31T17:24:37.440Z,7.60
2023-01-31T17:29:40.851Z,5.20
2023-01-31T17:34:46.217Z,4.40
2023-01-31T17:39:49.723Z,5.60
2023-01-31T17:44:53.133Z,5.20
2023-01-31T17:49:57.566Z,5.50
2023-01-31T17:55:01.101Z,6.30
2023-01-31T18:00:08.233Z,5.50
2023-01-31T18:05:13.894Z,6.70
2023-01-31T18:10:18.191Z,7.90
2023-01-31T18:15:22.185Z,8.90
2023-01-31T18:25:31.329Z,5.10
2023-01-31T18:30:34.750Z,5.70
2023-01-31T18:35:38.266Z,6.00
2023-01-31T18:40:41.946Z,6.40
2023-01-31T18:45:45.550Z,6.00
2023-01-31T18:50:48.909Z,7.00
2023-01-31T18:56:00.000Z,5.00
2023-01-31T19:01:07.568Z,6.30
2023-01-31T19:06:14.982Z,6.10
2023-01-31T19:11:20.455Z,6.20
2023-01-31T19:16:29.079Z,5.50
2023-01-31T19:21:34.685Z,5.40
2023-01-31T19:26:38.284Z,4.80
2023-01-31T19:31:42.122Z,4.00
2023-01-31T19:36:46.887Z,4.90
2023-01-31T19:41:50.345Z,4.60
2023-01-31T19:46:54.164Z,5.30
2023-01-31T19:51:57.693Z,4.30
2023-01-31T19:57:01.205Z,5.00
2023-01-31T20:02:04.736Z,4.10
2023-01-31T20:07:08.432Z,4.50
2023-01-31T20:12:12.670Z,5.10
2023-01-31T20:17:16.082Z,4.40
2023-01-31T20:22:22.260Z,4.90
2023-01-31T20:27:26.084Z,4.90
2023-01-31T20:32:29.702Z,4.20
2023-01-31T20:37:33.833Z,5.80
2023-01-31T20:42:37.455Z,5.00
2023-01-31T20:47:41.072Z,4.70
2023-01-31T20:52:44.586Z,6.10
2023-01-31T20:57:51.474Z,4.90
2023-01-31T21:02:54.987Z,5.80
2023-01-31T21:07:58.505Z,4.90
2023-01-31T21:13:02.134Z,5.80
2023-01-31T21:18:05.719Z,4.80
2023-01-31T21:23:09.876Z,5.00
2023-01-31T21:28:13.592Z,5.20
2023-01-31T21:33:18.222Z,5.70
2023-01-31T21:38:21.651Z,5.20
2023-01-31T21:43:25.169Z,5.00
2023-01-31T21:48:32.362Z,5.30
2023-01-31T21:53:36.705Z,5.00
2023-01-31T22:03:45.578Z,4.80
2023-01-31T22:08:57.899Z,4.90
2023-01-31T22:14:03.798Z,4.30
2023-01-31T22:19:08.153Z,4.10
2023-01-31T22:24:12.033Z,3.70
2023-01-31T22:29:16.262Z,3.70
2023-01-31T22:34:19.679Z,4.30
2023-01-31T22:39:23.193Z,3.70
2023-01-31T22:44:28.247Z,3.10
2023-01-31T22:49:31.653Z,2.40
2023-01-31T22:54:35.268Z,2.60
2023-01-31T22:59:38.886Z,2.70
2023-01-31T23:04:42.403Z,1.70
2023-01-31T23:09:46.024Z,2.20
2023-01-31T23:14:49.639Z,2.40
2023-01-31T23:19:53.164Z,2.20
2023-01-31T23:24:56.800Z,2.50
2023-01-31T23:30:00.392Z,1.50
2023-01-31T23:35:05.383Z,1.50
2023-01-31T23:40:10.212Z,1.40
2023-01-31T23:45:13.707Z,1.90
2023-01-31T23:50:17.834Z,1.90
2023-01-31T23:55:23.007Z,2.00
